Time;durP1;ratioP1;P1;durP2;ratioP2;P2;SDS_P1;SDS_P2;PMS_P1;PMS_P2;Temp;Humidity;BMP_temperature;BMP_pressure;BME280_temperature;BME280_humidity;BME280_pressure;Samples;Min_cycle;Max_cycle;Signal;HPM_P1;HPM_P2
2022/08/07 00:01:10;;;;;;;10.25;4.30;;;12.20;99.90;;;;;;5035351;28;20441;-77
2022/08/07 00:03:36;;;;;;;7.57;4.22;;;12.10;99.90;;;;;;5035810;28;20048;-77
2022/08/07 00:06:03;;;;;;;6.47;3.78;;;12.20;99.90;;;;;;5035826;28;20488;-77
2022/08/07 00:08:28;;;;;;;7.55;4.00;;;12.20;99.90;;;;;;5035882;28;20045;-77
2022/08/07 00:10:54;;;;;;;7.43;4.47;;;12.10;99.90;;;;;;5018754;28;20047;-77
2022/08/07 00:13:21;;;;;;;9.23;4.88;;;12.10;99.90;;;;;;5019247;28;20166;-78
2022/08/07 00:15:47;;;;;;;7.30;4.40;;;12.00;99.90;;;;;;5035854;28;20048;-77
2022/08/07 00:18:15;;;;;;;9.63;4.15;;;12.00;99.90;;;;;;5035631;28;20045;-77
2022/08/07 00:20:41;;;;;;;6.75;4.35;;;12.00;99.90;;;;;;5053023;28;20040;-77
2022/08/07 00:23:06;;;;;;;7.97;4.85;;;11.90;99.90;;;;;;5035836;28;20045;-77
2022/08/07 00:25:32;;;;;;;8.75;4.65;;;12.00;99.90;;;;;;5035175;28;20047;-77
2022/08/07 00:27:58;;;;;;;9.05;4.65;;;12.00;99.90;;;;;;5035843;28;20094;-77
2022/08/07 00:30:24;;;;;;;9.45;4.57;;;12.00;99.90;;;;;;5035111;28;20037;-78
2022/08/07 00:32:51;;;;;;;8.75;4.68;;;12.00;99.90;;;;;;5035481;28;20102;-77
2022/08/07 00:35:20;;;;;;;8.18;4.07;;;11.90;99.90;;;;;;5036808;28;20045;-77
2022/08/07 00:37:46;;;;;;;10.55;4.65;;;11.90;99.90;;;;;;5073306;28;20062;-78
2022/08/07 00:40:14;;;;;;;10.07;5.45;;;11.90;99.90;;;;;;5050138;28;20480;-77
2022/08/07 00:42:40;;;;;;;9.13;4.88;;;11.90;99.90;;;;;;5035288;28;20040;-77
2022/08/07 00:45:07;;;;;;;7.70;4.70;;;12.00;99.90;;;;;;5034972;28;20041;-77
2022/08/07 00:47:32;;;;;;;11.00;4.57;;;11.90;99.90;;;;;;5034710;28;20382;-79
2022/08/07 00:49:58;;;;;;;6.90;4.25;;;11.90;99.90;;;;;;5034730;28;20037;-77
2022/08/07 00:52:24;;;;;;;9.82;4.88;;;11.90;99.90;;;;;;5034890;28;20045;-77
2022/08/07 00:54:51;;;;;;;12.68;4.63;;;11.90;99.90;;;;;;5051345;28;20102;-77
2022/08/07 00:57:17;;;;;;;6.88;4.40;;;11.90;99.90;;;;;;5034822;28;20124;-77
2022/08/07 00:59:42;;;;;;;9.50;4.50;;;11.90;99.90;;;;;;5034313;28;20120;-77
2022/08/07 01:02:09;;;;;;;6.45;4.40;;;11.80;99.90;;;;;;5034929;28;20083;-77
2022/08/07 01:04:36;;;;;;;7.68;4.35;;;11.80;99.90;;;;;;5051261;28;20045;-77
2022/08/07 01:07:02;;;;;;;9.52;4.60;;;11.80;99.90;;;;;;5034570;28;20162;-77
2022/08/07 01:09:29;;;;;;;9.70;4.03;;;11.70;99.90;;;;;;5034440;28;20135;-77
2022/08/07 01:11:55;;;;;;;6.30;4.40;;;11.70;99.90;;;;;;5034646;28;20091;-77
2022/08/07 01:14:21;;;;;;;6.95;4.00;;;11.60;99.90;;;;;;5051120;28;20064;-77
2022/08/07 01:16:48;;;;;;;5.97;4.13;;;11.50;99.90;;;;;;5034394;28;20055;-79
2022/08/07 01:19:15;;;;;;;6.88;4.57;;;11.50;99.90;;;;;;5034326;28;20045;-76
2022/08/07 01:21:41;;;;;;;6.63;3.58;;;11.50;99.90;;;;;;5033651;28;20053;-77
2022/08/07 01:24:08;;;;;;;5.75;3.80;;;11.50;99.90;;;;;;5034203;28;20041;-77
2022/08/07 01:26:34;;;;;;;7.70;3.83;;;11.50;99.90;;;;;;5034245;28;20045;-77
2022/08/07 01:29:00;;;;;;;10.15;4.35;;;11.50;99.90;;;;;;5033528;28;20059;-77
2022/08/07 01:31:32;;;;;;;8.77;3.95;;;11.50;99.90;;;;;;5033664;28;20041;-78
2022/08/07 01:34:01;;;;;;;7.07;4.10;;;11.50;99.90;;;;;;5034158;28;20152;-77
2022/08/07 01:36:28;;;;;;;7.28;4.20;;;11.50;99.90;;;;;;5034149;28;20041;-78
2022/08/07 01:38:55;;;;;;;7.55;4.78;;;11.40;99.90;;;;;;5050715;28;20373;-78
2022/08/07 01:41:21;;;;;;;5.57;3.90;;;11.40;99.90;;;;;;5033388;28;20059;-77
2022/08/07 01:43:48;;;;;;;5.93;3.67;;;11.40;99.90;;;;;;5033517;28;20045;-77
2022/08/07 01:46:15;;;;;;;9.60;4.55;;;11.50;99.90;;;;;;5033759;28;20041;-77
2022/08/07 01:48:44;;;;;;;9.48;4.78;;;11.40;99.90;;;;;;5033800;28;20048;-77
2022/08/07 01:51:13;;;;;;;7.78;4.28;;;11.40;99.90;;;;;;5016912;28;20551;-78
2022/08/07 01:53:42;;;;;;;5.90;3.90;;;11.40;99.90;;;;;;5033767;28;20056;-77
2022/08/07 01:56:13;;;;;;;6.57;4.03;;;11.40;99.90;;;;;;5033398;28;20040;-77
2022/08/07 01:58:47;;;;;;;7.22;4.28;;;11.40;99.90;;;;;;5050176;28;20045;-77
2022/08/07 02:01:18;;;;;;;6.20;3.75;;;11.50;99.90;;;;;;5033735;28;20115;-78
2022/08/07 02:03:49;;;;;;;7.38;4.57;;;11.50;99.90;;;;;;5033784;28;20045;-77
2022/08/07 02:06:18;;;;;;;6.88;4.40;;;11.60;99.90;;;;;;5033922;28;20067;-77
2022/08/07 02:08:46;;;;;;;5.82;4.25;;;11.40;99.90;;;;;;5051225;28;20044;-77
2022/08/07 02:11:12;;;;;;;8.40;4.30;;;11.30;99.90;;;;;;5033054;28;20049;-77
2022/08/07 02:13:41;;;;;;;6.75;4.35;;;11.30;99.90;;;;;;5051329;28;20045;-77
2022/08/07 02:16:07;;;;;;;8.15;4.70;;;11.20;99.90;;;;;;5033549;28;20049;-77
2022/08/07 02:18:36;;;;;;;8.15;4.22;;;11.30;99.90;;;;;;5033387;28;20508;-78
2022/08/07 02:21:04;;;;;;;9.00;4.45;;;11.30;99.90;;;;;;5032997;28;20102;-77
2022/08/07 02:23:33;;;;;;;7.32;4.05;;;11.30;99.90;;;;;;5033327;28;20041;-77
2022/08/07 02:26:00;;;;;;;9.10;4.50;;;11.30;99.90;;;;;;5051320;28;20039;-78
2022/08/07 02:28:28;;;;;;;9.32;4.43;;;11.30;99.90;;;;;;5033315;28;20052;-77
2022/08/07 02:30:55;;;;;;;8.70;5.03;;;11.30;99.90;;;;;;5033225;28;20048;-77
2022/08/07 02:33:22;;;;;;;7.75;3.92;;;11.30;99.90;;;;;;5049961;28;20083;-77
2022/08/07 02:35:49;;;;;;;6.90;4.50;;;11.20;99.90;;;;;;5033063;28;20045;-77
2022/08/07 02:38:17;;;;;;;8.27;4.60;;;11.10;99.90;;;;;;5051307;28;20041;-77
2022/08/07 02:40:43;;;;;;;9.13;3.97;;;11.10;99.90;;;;;;5033868;28;20512;-77
2022/08/07 02:43:09;;;;;;;7.72;4.00;;;11.10;99.90;;;;;;5037540;28;20051;-77
2022/08/07 02:45:39;;;;;;;7.50;4.28;;;11.10;99.90;;;;;;5037216;28;20037;-77
2022/08/07 02:48:05;;;;;;;6.90;4.40;;;11.00;99.90;;;;;;5020660;28;20052;-77
2022/08/07 02:50:33;;;;;;;9.05;4.82;;;11.00;99.90;;;;;;5054716;28;20044;-78
2022/08/07 02:53:08;;;;;;;7.65;4.45;;;11.00;99.90;;;;;;5054907;28;20040;-77
2022/08/07 02:55:36;;;;;;;7.45;3.88;;;11.00;99.90;;;;;;5037356;28;20041;-77
2022/08/07 02:58:09;;;;;;;7.45;3.78;;;11.00;99.90;;;;;;5037008;28;20052;-77
2022/08/07 03:00:36;;;;;;;;;;;11.10;99.90;;;;;;5037187;28;20126;-78
2022/08/07 03:03:04;;;;;;;7.43;4.43;;;10.90;99.90;;;;;;5054822;28;19927;-77
2022/08/07 03:05:31;;;;;;;7.75;4.50;;;11.00;99.90;;;;;;5037014;28;20045;-77
2022/08/07 03:07:58;;;;;;;8.25;4.03;;;10.90;99.90;;;;;;5036709;28;20076;-77
2022/08/07 03:10:24;;;;;;;5.95;3.40;;;10.90;99.90;;;;;;5036516;28;20044;-77
2022/08/07 03:12:50;;;;;;;8.23;4.28;;;10.90;99.90;;;;;;5036872;28;20171;-77
2022/08/07 03:15:16;;;;;;;8.45;4.22;;;10.90;99.90;;;;;;5036931;28;20060;-77
2022/08/07 03:17:42;;;;;;;6.72;3.88;;;10.90;99.90;;;;;;5053302;28;20053;-77
2022/08/07 03:20:09;;;;;;;7.35;4.25;;;10.90;99.90;;;;;;5052996;28;20055;-77
2022/08/07 03:22:37;;;;;;;10.43;4.30;;;10.90;99.90;;;;;;5036700;28;20045;-78
2022/08/07 03:25:03;;;;;;;7.75;4.70;;;10.90;99.90;;;;;;5054381;28;20091;-78
2022/08/07 03:27:29;;;;;;;7.15;4.18;;;10.90;99.90;;;;;;5054557;28;20115;-77
2022/08/07 03:29:55;;;;;;;9.32;4.60;;;10.80;99.90;;;;;;5036237;28;20116;-78
2022/08/07 03:32:25;;;;;;;7.18;4.95;;;10.80;99.90;;;;;;5036333;28;20035;-78
2022/08/07 03:34:53;;;;;;;9.38;4.70;;;10.80;99.90;;;;;;5019898;28;20049;-77
2022/08/07 03:37:21;;;;;;;10.02;5.03;;;10.80;99.90;;;;;;5036714;28;20439;-77
2022/08/07 03:39:47;;;;;;;9.02;5.03;;;10.90;99.90;;;;;;5036021;28;20134;-77
2022/08/07 03:42:16;;;;;;;5.65;3.90;;;10.80;99.90;;;;;;5054402;28;20043;-77
2022/08/07 03:44:42;;;;;;;7.18;4.22;;;10.80;99.90;;;;;;5036173;28;20110;-79
2022/08/07 03:47:09;;;;;;;8.43;4.75;;;10.80;99.90;;;;;;5036321;28;20527;-77
2022/08/07 03:49:36;;;;;;;8.63;4.78;;;10.80;99.90;;;;;;5052550;28;20052;-77
2022/08/07 03:52:02;;;;;;;6.57;4.28;;;10.70;99.90;;;;;;5035922;28;20702;-77
2022/08/07 03:54:28;;;;;;;12.35;4.50;;;10.70;99.90;;;;;;5036010;28;20072;-78
2022/08/07 03:56:56;;;;;;;7.68;4.50;;;10.70;99.90;;;;;;5035982;28;20094;-77
2022/08/07 03:59:22;;;;;;;6.78;4.07;;;10.70;99.90;;;;;;5035907;28;20485;-77
2022/08/07 04:01:48;;;;;;;8.48;4.43;;;10.70;99.90;;;;;;5035615;28;20163;-77
2022/08/07 04:04:18;;;;;;;9.25;4.70;;;10.70;99.90;;;;;;5035874;28;20072;-79
2022/08/07 04:06:43;;;;;;;10.75;5.18;;;10.60;99.90;;;;;;5036026;28;20486;-77
2022/08/07 04:09:10;;;;;;;9.40;4.70;;;10.60;99.90;;;;;;5035968;28;20045;-77
2022/08/07 04:11:36;;;;;;;11.50;5.68;;;10.60;99.90;;;;;;5052137;28;20126;-77
2022/08/07 04:14:03;;;;;;;12.20;5.65;;;10.60;99.90;;;;;;5035616;28;20056;-78
2022/08/07 04:16:28;;;;;;;10.68;5.80;;;10.60;99.90;;;;;;5035720;28;20044;-78
2022/08/07 04:18:54;;;;;;;9.73;5.63;;;10.60;99.90;;;;;;5035851;28;20048;-77
2022/08/07 04:21:20;;;;;;;10.82;5.82;;;10.60;99.90;;;;;;5052068;28;20072;-77
2022/08/07 04:23:46;;;;;;;11.80;6.25;;;10.60;99.90;;;;;;5035756;28;20041;-78
2022/08/07 04:26:13;;;;;;;8.32;4.72;;;10.60;99.90;;;;;;5035889;28;20053;-77
2022/08/07 04:28:42;;;;;;;10.27;5.28;;;10.60;99.90;;;;;;5035457;28;20045;-79
2022/08/07 04:31:09;;;;;;;8.23;4.97;;;10.60;99.90;;;;;;5035114;28;20439;-77
2022/08/07 04:33:36;;;;;;;8.32;5.07;;;10.60;99.90;;;;;;5035464;28;20044;-77
2022/08/07 04:36:03;;;;;;;10.90;5.50;;;10.70;99.90;;;;;;5053188;28;20045;-77
2022/08/07 04:38:29;;;;;;;11.98;5.88;;;10.60;99.90;;;;;;5035430;28;20041;-77
2022/08/07 04:40:54;;;;;;;9.02;5.85;;;10.60;99.90;;;;;;5034752;28;20106;-77
2022/08/07 04:43:31;;;;;;;9.77;5.32;;;10.60;99.90;;;;;;5019119;28;20476;-77
2022/08/07 04:46:09;;;;;;;11.30;6.05;;;10.70;99.90;;;;;;5035225;28;20033;-77
2022/08/07 04:48:56;;;;;;;10.88;5.60;;;10.80;99.90;;;;;;5035389;28;20151;-77
2022/08/07 04:51:50;;;;;;;10.85;5.70;;;10.90;99.90;;;;;;5034739;28;20095;-77
2022/08/07 04:54:25;;;;;;;8.50;4.85;;;10.90;99.90;;;;;;5035032;28;20052;-78
2022/08/07 04:56:56;;;;;;;9.30;5.70;;;10.70;99.90;;;;;;5051633;28;20084;-77
2022/08/07 04:59:39;;;;;;;11.40;5.68;;;10.80;99.90;;;;;;5052721;28;20144;-77
2022/08/07 05:02:24;;;;;;;9.85;5.95;;;10.90;99.90;;;;;;5035271;28;20468;-77
2022/08/07 05:05:11;;;;;;;10.35;5.88;;;10.90;99.90;;;;;;5034231;28;20553;-79
2022/08/07 05:07:51;;;;;;;12.43;6.50;;;11.20;99.90;;;;;;5035120;28;20045;-77
2022/08/07 05:10:27;;;;;;;13.48;6.90;;;11.60;99.90;;;;;;5034407;28;20783;-77
2022/08/07 05:13:07;;;;;;;11.65;6.43;;;12.00;99.90;;;;;;5035007;28;20144;-78
2022/08/07 05:15:39;;;;;;;12.68;6.10;;;12.50;99.90;;;;;;5052688;28;20473;-77
2022/08/07 05:18:08;;;;;;;;;;;13.00;99.90;;;;;;5052939;28;20946;-77
2022/08/07 05:20:42;;;;;;;10.95;5.93;;;13.40;99.90;;;;;;5052100;28;20430;-78
2022/08/07 05:23:14;;;;;;;9.82;6.03;;;13.90;99.90;;;;;;5034805;28;20559;-78
2022/08/07 05:25:41;;;;;;;7.43;5.40;;;14.20;99.90;;;;;;5034602;28;20041;-77
2022/08/07 05:28:08;;;;;;;13.00;6.80;;;14.60;99.90;;;;;;5034708;28;20124;-78
2022/08/07 05:30:35;;;;;;;12.65;6.53;;;15.10;99.90;;;;;;5017733;28;20077;-78
2022/08/07 05:33:04;;;;;;;10.23;6.32;;;15.40;99.90;;;;;;5034254;28;20055;-77
2022/08/07 05:35:34;;;;;;;9.93;6.80;;;15.70;99.90;;;;;;5052127;28;20040;-78
2022/08/07 05:38:01;;;;;;;7.57;5.32;;;15.90;99.90;;;;;;5052206;28;20053;-78
2022/08/07 05:40:27;;;;;;;8.57;6.15;;;16.00;99.90;;;;;;5033753;28;20055;-78
2022/08/07 05:42:53;;;;;;;10.38;6.57;;;16.20;99.90;;;;;;5034065;28;20048;-79
2022/08/07 05:45:20;;;;;;;13.60;7.00;;;16.30;99.90;;;;;;5033931;28;20074;-78
2022/08/07 05:47:45;;;;;;;11.65;7.47;;;16.50;99.90;;;;;;5053024;28;20048;-77
2022/08/07 05:50:12;;;;;;;11.18;7.15;;;16.70;99.90;;;;;;5047173;28;20057;-79
2022/08/07 05:52:39;;;;;;;14.13;8.18;;;16.80;99.90;;;;;;5040823;28;20083;-79
2022/08/07 05:55:06;;;;;;;11.68;8.63;;;17.30;99.90;;;;;;5051691;28;20077;-78
2022/08/07 05:57:34;;;;;;;12.95;7.22;;;17.60;99.90;;;;;;5034161;28;20056;-78
2022/08/07 06:00:00;;;;;;;11.13;7.85;;;17.90;99.90;;;;;;5033590;28;20045;-79
2022/08/07 06:02:29;;;;;;;12.23;7.90;;;18.20;99.90;;;;;;5033859;28;20087;-79
2022/08/07 06:04:59;;;;;;;14.55;8.00;;;18.30;99.90;;;;;;5051739;28;20040;-78
2022/08/07 06:07:27;;;;;;;15.75;8.27;;;18.40;99.90;;;;;;5050406;28;20120;-78
2022/08/07 06:09:53;;;;;;;9.48;6.68;;;18.60;99.90;;;;;;5033298;28;20110;-78
2022/08/07 06:12:18;;;;;;;16.40;8.13;;;18.50;99.90;;;;;;5033668;28;20044;-78
2022/08/07 06:14:44;;;;;;;12.30;8.55;;;18.60;99.90;;;;;;5033441;28;20045;-79
2022/08/07 06:17:12;;;;;;;17.08;8.48;;;18.80;99.90;;;;;;5051434;28;20048;-79
2022/08/07 06:19:39;;;;;;;11.80;8.48;;;19.10;99.90;;;;;;5033120;28;20044;-79
2022/08/07 06:22:06;;;;;;;11.95;7.78;;;19.30;99.90;;;;;;5033480;28;20435;-79
2022/08/07 06:24:31;;;;;;;12.85;9.13;;;19.50;99.90;;;;;;5033807;28;20463;-79
2022/08/07 06:26:57;;;;;;;12.43;9.00;;;19.70;99.90;;;;;;5033377;28;20072;-79
2022/08/07 06:29:27;;;;;;;11.50;8.43;;;20.00;99.90;;;;;;5033413;28;20055;-79
2022/08/07 06:31:53;;;;;;;11.73;8.02;;;20.20;99.90;;;;;;5033501;28;20489;-79
2022/08/07 06:34:22;;;;;;;11.07;8.90;;;20.40;99.90;;;;;;5051178;28;20044;-79
2022/08/07 06:36:48;;;;;;;12.80;8.68;;;20.60;99.90;;;;;;5033312;28;20388;-78
2022/08/07 06:39:13;;;;;;;10.63;8.48;;;20.70;99.90;;;;;;5016475;28;20041;-79
2022/08/07 06:41:42;;;;;;;13.35;9.18;;;20.90;99.90;;;;;;5033110;28;20045;-79
2022/08/07 06:44:10;;;;;;;13.43;9.15;;;21.10;99.90;;;;;;5051185;28;20043;-78
2022/08/07 06:46:36;;;;;;;13.52;8.82;;;21.20;99.90;;;;;;5051661;28;20079;-78
2022/08/07 06:49:03;;;;;;;13.32;9.15;;;21.40;99.90;;;;;;5017232;28;20432;-78
2022/08/07 06:51:30;;;;;;;12.90;8.95;;;21.50;99.90;;;;;;5051261;28;20049;-78
2022/08/07 06:54:02;;;;;;;11.85;9.10;;;21.70;99.90;;;;;;5051438;28;20499;-78
2022/08/07 06:56:42;;;;;;;12.45;8.73;;;21.90;99.90;;;;;;5033657;28;20103;-78
2022/08/07 06:59:35;;;;;;;10.98;8.45;;;21.80;99.90;;;;;;5051226;28;20045;-78
2022/08/07 07:02:02;;;;;;;8.85;6.47;;;21.90;99.90;;;;;;5033803;28;20071;-78
2022/08/07 07:04:30;;;;;;;10.60;7.28;;;21.90;99.90;;;;;;5033432;28;20048;-78
2022/08/07 07:06:56;;;;;;;10.98;7.78;;;21.90;99.90;;;;;;5033562;28;20492;-78
2022/08/07 07:09:29;;;;;;;11.43;7.43;;;21.80;99.90;;;;;;5050132;28;20057;-78
2022/08/07 07:12:16;;;;;;;11.00;7.28;;;21.70;99.90;;;;;;5033584;28;20489;-78
2022/08/07 07:14:48;;;;;;;10.88;6.90;;;21.70;99.90;;;;;;5051252;28;20041;-78
2022/08/07 07:17:22;;;;;;;9.70;6.60;;;21.40;99.90;;;;;;5033210;28;20120;-78
2022/08/07 07:19:54;;;;;;;8.23;5.72;;;21.30;99.90;;;;;;5033316;28;20460;-78
2022/08/07 07:22:21;;;;;;;6.85;4.57;;;21.30;99.90;;;;;;5033470;28;20041;-77
2022/08/07 07:24:47;;;;;;;7.78;4.25;;;21.40;99.90;;;;;;5051090;28;20029;-78
2022/08/07 07:27:15;;;;;;;6.45;5.10;;;21.40;99.90;;;;;;5035129;28;20431;-78
2022/08/07 07:29:48;;;;;;;8.35;5.03;;;21.70;99.60;;;;;;5036928;28;20049;-78
2022/08/07 07:32:15;;;;;;;7.47;5.45;;;22.10;99.50;;;;;;5036997;28;20487;-78
2022/08/07 07:34:51;;;;;;;9.70;4.88;;;22.50;98.70;;;;;;5037054;28;20051;-78
2022/08/07 07:37:17;;;;;;;7.35;4.35;;;23.00;96.10;;;;;;5036928;28;20095;-78
2022/08/07 07:39:44;;;;;;;7.35;4.88;;;23.30;95.70;;;;;;5054665;28;20381;-78
2022/08/07 07:42:11;;;;;;;7.50;4.18;;;23.60;94.10;;;;;;5054751;28;20037;-79
2022/08/07 07:44:40;;;;;;;5.25;3.67;;;23.50;93.10;;;;;;5036626;28;20036;-78
2022/08/07 07:47:07;;;;;;;4.10;3.30;;;23.60;92.90;;;;;;5036794;28;20041;-78
2022/08/07 07:49:34;;;;;;;3.90;3.50;;;23.90;90.30;;;;;;5036661;28;20128;-78
2022/08/07 07:52:02;;;;;;;4.95;3.28;;;24.20;84.10;;;;;;5036978;28;20128;-78
2022/08/07 07:54:29;;;;;;;8.82;3.88;;;24.10;81.90;;;;;;5054226;28;20041;-77
2022/08/07 07:56:56;;;;;;;4.97;3.70;;;24.40;79.70;;;;;;5054346;28;20396;-78
2022/08/07 07:59:24;;;;;;;6.00;3.13;;;24.30;78.30;;;;;;5036339;28;20057;-78
2022/08/07 08:01:51;;;;;;;3.10;2.80;;;24.40;77.20;;;;;;5036568;28;20124;-78
2022/08/07 08:04:18;;;;;;;3.60;3.30;;;24.30;76.60;;;;;;5036706;28;20068;-78
2022/08/07 08:06:46;;;;;;;4.32;3.20;;;24.50;76.20;;;;;;5036474;28;20041;-78
2022/08/07 08:09:15;;;;;;;6.00;2.92;;;24.70;75.40;;;;;;5054045;28;20049;-78
2022/08/07 08:11:42;;;;;;;3.92;3.15;;;24.90;74.00;;;;;;5036409;28;20120;-78
2022/08/07 08:14:08;;;;;;;6.13;3.35;;;24.90;71.30;;;;;;5036259;28;20060;-78
2022/08/07 08:16:39;;;;;;;4.40;3.05;;;24.90;71.30;;;;;;5036120;28;20045;-78
2022/08/07 08:19:08;;;;;;;3.78;2.88;;;25.00;69.50;;;;;;5036312;28;20127;-78
2022/08/07 08:27:11;;;;;;;2.97;2.30;;;25.30;69.40;;;;;;5036382;28;20187;-79
2022/08/07 08:29:50;;;;;;;5.53;2.80;;;25.20;67.90;;;;;;5036042;28;20048;-78
2022/08/07 08:32:22;;;;;;;2.72;2.35;;;25.20;66.50;;;;;;5035857;28;20056;-79
2022/08/07 08:34:50;;;;;;;3.22;2.40;;;25.20;66.40;;;;;;5035851;28;20033;-79
2022/08/07 08:37:18;;;;;;;2.78;2.20;;;25.30;66.40;;;;;;5053549;28;20040;-81
2022/08/07 08:39:45;;;;;;;2.90;2.40;;;25.40;65.90;;;;;;5052540;28;20071;-79
2022/08/07 08:42:19;;;;;;;4.05;2.60;;;25.50;65.70;;;;;;5035610;28;20052;-78
2022/08/07 08:45:11;;;;;;;3.80;2.22;;;25.50;64.80;;;;;;5035316;28;20041;-78
2022/08/07 08:47:51;;;;;;;4.25;2.75;;;25.40;61.10;;;;;;5035414;28;20044;-78
2022/08/07 08:50:21;;;;;;;4.30;2.78;;;25.40;62.70;;;;;;5053187;28;20510;-78
2022/08/07 08:52:56;;;;;;;4.85;2.70;;;25.50;63.70;;;;;;5035395;28;20048;-79
2022/08/07 08:55:26;;;;;;;4.32;2.55;;;25.60;64.60;;;;;;5035556;28;20534;-78
2022/08/07 08:58:18;;;;;;;3.30;2.60;;;25.80;62.80;;;;;;5053346;28;20115;-78
2022/08/07 09:00:50;;;;;;;2.85;2.53;;;26.00;61.30;;;;;;5011144;28;20073;-78
2022/08/07 09:03:22;;;;;;;3.17;2.78;;;26.00;60.90;;;;;;5035021;28;20048;-78
2022/08/07 09:06:08;;;;;;;4.28;2.97;;;26.00;58.30;;;;;;5035442;28;20041;-78
2022/08/07 09:08:56;;;;;;;4.85;3.45;;;25.90;59.40;;;;;;5051856;28;20040;-78
2022/08/07 09:11:48;;;;;;;3.45;2.47;;;26.00;61.70;;;;;;5034978;28;20539;-78
2022/08/07 09:14:21;;;;;;;4.50;3.05;;;26.00;58.30;;;;;;5035054;28;20059;-78
2022/08/07 09:16:56;;;;;;;4.00;2.72;;;26.10;60.90;;;;;;5053171;28;20116;-80
2022/08/07 09:19:34;;;;;;;3.92;2.92;;;26.10;60.30;;;;;;5034945;28;20498;-78
2022/08/07 09:22:25;;;;;;;4.50;2.58;;;26.10;59.70;;;;;;5037870;28;20068;-78
2022/08/07 09:25:06;;;;;;;4.93;2.70;;;26.20;59.80;;;;;;5035515;28;20045;-78
2022/08/07 09:28:02;;;;;;;3.00;2.75;;;26.40;58.20;;;;;;5034821;28;20523;-78
2022/08/07 09:30:43;;;;;;;4.05;2.22;;;26.40;56.50;;;;;;5034533;28;20045;-77
2022/08/07 09:33:21;;;;;;;5.07;2.97;;;26.50;58.40;;;;;;5052467;28;20106;-78
2022/08/07 09:35:56;;;;;;;6.13;2.47;;;26.50;59.30;;;;;;5052495;28;20037;-78
2022/08/07 09:38:37;;;;;;;4.20;2.08;;;26.40;59.50;;;;;;5034338;28;20536;-79
2022/08/07 09:41:31;;;;;;;3.45;2.22;;;26.50;58.30;;;;;;5034077;28;20436;-78
2022/08/07 09:44:22;;;;;;;5.05;2.50;;;26.70;58.30;;;;;;5052393;28;20120;-77
2022/08/07 09:46:48;;;;;;;;;;;26.60;56.40;;;;;;5018233;28;20049;-79
2022/08/07 09:49:19;;;;;;;2.97;2.00;;;26.40;57.10;;;;;;5050729;28;19924;-79
2022/08/07 09:51:56;;;;;;;3.17;2.33;;;26.40;59.00;;;;;;5034006;28;20041;-78
2022/08/07 09:55:08;;;;;;;2.35;2.08;;;25.80;58.20;;;;;;5034219;28;20754;-78
2022/08/07 09:57:42;;;;;;;4.57;1.92;;;25.00;58.30;;;;;;5034335;28;20421;-79
2022/08/07 10:00:14;;;;;;;3.28;2.08;;;24.70;60.50;;;;;;5033934;28;20045;-77
2022/08/07 10:02:48;;;;;;;;;;;25.00;59.50;;;;;;5034480;28;20076;-77
2022/08/07 10:05:20;;;;;;;4.70;2.15;;;25.20;58.80;;;;;;5050783;28;20288;-77
2022/08/07 10:08:32;;;;;;;4.20;2.15;;;25.60;56.70;;;;;;5033899;28;20511;-78
2022/08/07 10:11:21;;;;;;;1.85;1.70;;;25.40;57.80;;;;;;5034076;28;20438;-79
2022/08/07 10:14:15;;;;;;;2.92;2.15;;;25.00;58.20;;;;;;5050376;28;20127;-78
2022/08/07 10:16:52;;;;;;;5.03;1.80;;;24.90;58.70;;;;;;5051422;28;20530;-78
2022/08/07 10:19:35;;;;;;;4.60;1.65;;;25.10;57.70;;;;;;5033471;28;20492;-78
2022/08/07 10:22:27;;;;;;;3.25;1.70;;;25.00;57.90;;;;;;5033874;28;20461;-79
2022/08/07 10:25:12;;;;;;;2.80;2.10;;;24.70;58.30;;;;;;5051455;28;20033;-79
2022/08/07 10:27:59;;;;;;;2.65;2.03;;;24.70;59.60;;;;;;5033606;28;20087;-77
2022/08/07 10:30:55;;;;;;;3.40;2.05;;;24.70;58.90;;;;;;5033227;28;20495;-78
2022/08/07 10:33:23;;;;;;;2.80;2.00;;;24.80;61.00;;;;;;5033693;28;20111;-77
2022/08/07 10:35:55;;;;;;;2.85;2.10;;;24.90;60.00;;;;;;5033539;28;20132;-78
2022/08/07 10:38:46;;;;;;;4.68;2.38;;;25.10;60.40;;;;;;5033563;28;20177;-77
2022/08/07 10:41:33;;;;;;;3.40;1.60;;;25.50;60.20;;;;;;5032969;28;20045;-78
2022/08/07 10:44:14;;;;;;;1.85;1.55;;;25.50;60.00;;;;;;5033437;28;20052;-79
2022/08/07 10:47:17;;;;;;;4.80;1.92;;;25.50;61.20;;;;;;5033361;28;20124;-78
2022/08/07 10:49:55;;;;;;;3.75;1.75;;;25.70;59.20;;;;;;5032814;28;20581;-79
2022/08/07 10:52:45;;;;;;;4.18;1.88;;;25.60;59.10;;;;;;5033410;28;20049;-77
2022/08/07 10:55:21;;;;;;;2.53;1.63;;;25.50;58.70;;;;;;5033088;28;20116;-77
2022/08/07 10:58:10;;;;;;;2.67;1.73;;;25.30;58.90;;;;;;5033189;28;20500;-78
2022/08/07 11:00:47;;;;;;;2.45;1.52;;;25.40;58.20;;;;;;5033045;28;20443;-78
2022/08/07 11:03:41;;;;;;;4.13;1.58;;;25.50;58.00;;;;;;5036893;28;20106;-77
2022/08/07 11:06:24;;;;;;;3.15;1.70;;;25.40;58.40;;;;;;5055507;28;20033;-77
2022/08/07 11:09:17;;;;;;;2.85;1.25;;;25.40;57.90;;;;;;5037137;28;20052;-78
2022/08/07 11:12:01;;;;;;;3.95;1.98;;;25.40;56.40;;;;;;5036867;28;20045;-78
2022/08/07 11:14:34;;;;;;;1.55;1.30;;;25.70;57.60;;;;;;5036982;28;20518;-78
2022/08/07 11:17:12;;;;;;;3.28;1.35;;;25.70;56.60;;;;;;5054830;28;20064;-77
2022/08/07 11:19:40;;;;;;;1.73;1.40;;;25.70;55.60;;;;;;5036843;28;20049;-77
2022/08/07 11:22:16;;;;;;;3.38;1.52;;;25.70;55.20;;;;;;5037165;28;20049;-77
2022/08/07 11:24:58;;;;;;;1.67;1.45;;;25.80;55.10;;;;;;5037101;28;20053;-77
2022/08/07 11:27:44;;;;;;;3.95;1.30;;;25.80;53.60;;;;;;5037316;28;20527;-79
2022/08/07 11:30:24;;;;;;;2.00;1.38;;;25.80;55.10;;;;;;5054360;28;20180;-77
2022/08/07 11:33:00;;;;;;;3.90;1.20;;;25.80;53.40;;;;;;5054616;28;20037;-78
2022/08/07 11:35:41;;;;;;;1.92;1.15;;;25.80;52.30;;;;;;5036509;28;20045;-78
2022/08/07 11:38:18;;;;;;;1.75;1.00;;;25.70;52.00;;;;;;5036509;28;20076;-79
2022/08/07 11:41:07;;;;;;;3.10;1.20;;;25.70;51.70;;;;;;5019481;28;20047;-78
2022/08/07 11:43:58;;;;;;;2.15;1.30;;;25.90;50.90;;;;;;5036487;28;20051;-79
2022/08/07 11:46:45;;;;;;;3.63;1.05;;;25.80;49.90;;;;;;5036726;28;20044;-78
2022/08/07 11:49:38;;;;;;;2.80;1.02;;;25.90;49.30;;;;;;5036698;28;20120;-78
2022/08/07 11:52:13;;;;;;;1.17;1.08;;;25.90;50.10;;;;;;5036165;28;20074;-78
2022/08/07 11:55:05;;;;;;;2.45;1.08;;;25.90;49.10;;;;;;5036328;28;20092;-78
2022/08/07 11:57:44;;;;;;;1.95;1.25;;;25.90;49.70;;;;;;5036152;28;20041;-79
2022/08/07 12:00:18;;;;;;;1.83;1.10;;;25.90;49.90;;;;;;5052573;28;20095;-77
2022/08/07 12:03:05;;;;;;;1.33;0.93;;;26.00;50.20;;;;;;5036429;28;20098;-80
2022/08/07 12:05:56;;;;;;;2.28;0.85;;;26.00;49.40;;;;;;5036201;28;20534;-77
2022/08/07 12:08:28;;;;;;;2.13;1.23;;;26.00;48.30;;;;;;5027224;28;20057;-78
2022/08/07 12:10:56;;;;;;;2.08;0.70;;;25.90;48.70;;;;;;5035769;28;20049;-78
2022/08/07 12:13:41;;;;;;;4.25;1.15;;;26.00;48.00;;;;;;5035584;28;20047;-77
2022/08/07 12:16:34;;;;;;;2.28;1.00;;;25.90;48.20;;;;;;5035844;28;20369;-77
2022/08/07 12:19:12;;;;;;;5.75;2.08;;;25.90;46.30;;;;;;5032729;28;20053;-77
2022/08/07 12:21:59;;;;;;;2.35;1.35;;;25.90;48.60;;;;;;5035632;28;20095;-78
2022/08/07 12:25:51;;;;;;;1.38;1.23;;;26.20;47.70;;;;;;5035816;28;20141;-78
2022/08/07 12:27:36;;;;;;;5.32;1.10;;;26.20;48.70;;;;;;5035688;28;20560;-77
2022/08/07 12:30:07;;;;;;;1.40;1.00;;;26.30;45.70;;;;;;5035976;28;20391;-77
2022/08/07 12:32:46;;;;;;;1.42;1.20;;;26.20;46.90;;;;;;5035829;28;20041;-77
2022/08/07 12:35:14;;;;;;;1.75;1.27;;;26.30;48.00;;;;;;5019368;28;20044;-78
2022/08/07 12:37:41;;;;;;;1.58;1.20;;;26.20;48.30;;;;;;5035626;28;20059;-77
2022/08/07 12:40:11;;;;;;;2.92;1.00;;;26.30;49.40;;;;;;5035132;28;20408;-78
2022/08/07 12:42:39;;;;;;;1.83;1.55;;;26.30;49.20;;;;;;5035543;28;20043;-80
2022/08/07 12:45:11;;;;;;;1.98;1.20;;;26.40;49.20;;;;;;5052324;28;20423;-77
2022/08/07 12:47:57;;;;;;;2.90;1.50;;;26.50;48.50;;;;;;5036327;28;20087;-77
2022/08/07 12:50:49;;;;;;;2.85;1.67;;;26.30;48.90;;;;;;5035150;28;20041;-79
2022/08/07 12:53:31;;;;;;;2.42;1.20;;;26.20;49.20;;;;;;5037156;28;20064;-79
2022/08/07 12:55:57;;;;;;;1.88;1.13;;;26.10;49.80;;;;;;5054123;28;20067;-79
2022/08/07 12:58:27;;;;;;;3.17;1.27;;;26.10;50.20;;;;;;5038276;28;20435;-80
2022/08/07 13:01:07;;;;;;;2.72;1.30;;;26.20;49.80;;;;;;5018658;28;20041;-79
2022/08/07 13:03:39;;;;;;;3.60;1.90;;;26.40;48.30;;;;;;5038019;28;20125;-79
2022/08/07 13:06:11;;;;;;;1.95;1.50;;;26.30;49.90;;;;;;5037441;28;20385;-79
2022/08/07 13:08:43;;;;;;;2.22;1.48;;;26.30;50.10;;;;;;5050576;28;20029;-79
2022/08/07 13:11:30;;;;;;;3.88;1.25;;;26.30;50.30;;;;;;5056791;28;20032;-79
2022/08/07 13:14:17;;;;;;;3.75;1.50;;;26.40;49.90;;;;;;5044848;28;20045;-79
2022/08/07 13:16:55;;;;;;;1.45;1.35;;;26.50;50.00;;;;;;5037174;28;20069;-79
2022/08/07 13:19:23;;;;;;;2.38;1.30;;;26.50;51.00;;;;;;5036579;28;20057;-79